createdAt,value
2018-08-30T00:00:33.354Z,99.90
2018-08-30T00:03:04.436Z,99.90
2018-08-30T00:05:35.549Z,99.90
2018-08-30T00:08:06.784Z,99.90
2018-08-30T00:10:38.701Z,99.90
2018-08-30T00:13:10.214Z,99.90
2018-08-30T00:15:41.974Z,99.90
2018-08-30T00:18:13.625Z,99.90
2018-08-30T00:20:45.181Z,99.90
2018-08-30T00:23:16.608Z,99.90
2018-08-30T00:25:48.057Z,99.90
2018-08-30T00:28:19.887Z,99.90
2018-08-30T00:30:51.312Z,99.90
2018-08-30T00:33:23.699Z,99.90
2018-08-30T00:35:55.285Z,99.90
2018-08-30T00:38:26.476Z,99.90
2018-08-30T00:40:57.785Z,99.90
2018-08-30T00:43:29.200Z,99.90
2018-08-30T00:46:00.621Z,99.90
2018-08-30T00:48:31.900Z,99.90
2018-08-30T00:51:03.124Z,99.90
2018-08-30T00:53:34.480Z,99.90
2018-08-30T00:56:05.930Z,99.90
2018-08-30T00:58:37.038Z,99.90
2018-08-30T01:01:08.382Z,99.90
2018-08-30T01:03:39.482Z,99.90
2018-08-30T01:06:10.710Z,99.90
2018-08-30T01:08:42.023Z,99.90
2018-08-30T01:11:13.280Z,99.90
2018-08-30T01:13:44.694Z,99.90
2018-08-30T01:18:41.611Z,99.90
2018-08-30T01:21:12.724Z,99.90
2018-08-30T01:23:43.886Z,99.90
2018-08-30T01:26:14.954Z,99.90
2018-08-30T01:28:46.032Z,99.90
2018-08-30T01:31:17.224Z,99.90
2018-08-30T01:33:48.514Z,99.90
2018-08-30T01:36:19.853Z,99.90
2018-08-30T01:38:51.041Z,99.90
2018-08-30T01:41:22.193Z,99.90
2018-08-30T01:43:53.503Z,99.90
2018-08-30T01:46:24.809Z,99.90
2018-08-30T01:48:56.206Z,99.90
2018-08-30T01:51:27.603Z,99.90
2018-08-30T01:53:58.789Z,99.90
2018-08-30T01:56:30.039Z,99.90
2018-08-30T01:59:01.363Z,99.90
2018-08-30T02:01:32.529Z,99.90
2018-08-30T02:04:03.905Z,99.90
2018-08-30T02:06:35.076Z,99.90
2018-08-30T02:09:07.157Z,99.90
2018-08-30T02:11:38.349Z,99.90
2018-08-30T02:14:09.510Z,99.90
2018-08-30T02:16:40.858Z,99.90
2018-08-30T02:19:12.090Z,99.90
2018-08-30T02:21:43.513Z,99.90
2018-08-30T02:24:14.817Z,99.90
2018-08-30T02:26:46.073Z,99.90
2018-08-30T02:29:17.284Z,99.90
2018-08-30T02:31:48.766Z,99.90
2018-08-30T02:34:20.022Z,99.90
2018-08-30T02:36:51.434Z,99.90
2018-08-30T02:39:22.620Z,99.90
2018-08-30T02:41:54.020Z,99.90
2018-08-30T02:44:25.204Z,99.90
2018-08-30T02:46:56.331Z,99.90
2018-08-30T02:49:27.630Z,99.90
2018-08-30T02:51:58.928Z,99.90
2018-08-30T02:54:29.974Z,99.90
2018-08-30T02:57:01.042Z,99.90
2018-08-30T02:59:32.429Z,99.90
2018-08-30T03:02:04.093Z,99.90
2018-08-30T03:04:35.188Z,99.90
2018-08-30T03:07:06.398Z,99.90
2018-08-30T03:09:37.492Z,99.90
2018-08-30T03:12:08.561Z,99.90
2018-08-30T03:14:39.800Z,99.90
2018-08-30T03:17:10.991Z,99.90
2018-08-30T03:19:42.485Z,99.90
2018-08-30T03:22:13.527Z,99.90
2018-08-30T03:24:44.627Z,99.90
2018-08-30T03:27:15.650Z,99.90
2018-08-30T03:29:46.692Z,99.90
2018-08-30T03:32:17.981Z,99.90
2018-08-30T03:34:49.176Z,99.90
2018-08-30T03:37:20.234Z,99.90
2018-08-30T03:39:51.559Z,99.90
2018-08-30T03:42:22.782Z,99.90
2018-08-30T03:44:53.939Z,99.90
2018-08-30T03:47:25.083Z,99.90
2018-08-30T03:49:56.300Z,99.90
2018-08-30T03:52:27.444Z,99.90
2018-08-30T03:54:58.671Z,99.90
2018-08-30T03:57:29.787Z,99.90
2018-08-30T04:00:00.895Z,99.90
2018-08-30T04:02:32.002Z,99.90
2018-08-30T04:05:03.144Z,99.90
2018-08-30T04:07:34.314Z,99.90
2018-08-30T04:10:05.594Z,99.90
2018-08-30T04:12:36.831Z,99.90
2018-08-30T04:15:08.094Z,99.90
2018-08-30T04:17:39.207Z,99.90
2018-08-30T04:20:10.310Z,99.90
2018-08-30T04:22:41.388Z,99.90
2018-08-30T04:25:12.539Z,99.90
2018-08-30T04:27:43.658Z,99.90
2018-08-30T04:30:14.919Z,99.90
2018-08-30T04:32:46.227Z,99.90
2018-08-30T04:35:17.311Z,99.90
2018-08-30T04:37:48.439Z,99.90
2018-08-30T04:40:19.594Z,99.90
2018-08-30T04:42:50.759Z,99.90
2018-08-30T04:45:21.943Z,99.90
2018-08-30T04:47:53.030Z,99.90
2018-08-30T04:50:24.193Z,99.90
2018-08-30T04:52:55.470Z,99.90
2018-08-30T04:57:52.278Z,99.90
2018-08-30T05:00:23.482Z,99.90
2018-08-30T05:02:54.766Z,99.90
2018-08-30T05:05:25.842Z,99.90
2018-08-30T05:07:57.070Z,99.90
2018-08-30T05:10:28.554Z,99.90
2018-08-30T05:12:59.578Z,99.90
2018-08-30T05:15:30.612Z,99.90
2018-08-30T05:18:01.680Z,99.90
2018-08-30T05:20:32.751Z,99.90
2018-08-30T05:23:03.794Z,99.90
2018-08-30T05:25:34.886Z,99.90
2018-08-30T05:28:05.874Z,99.90
2018-08-30T05:30:36.914Z,99.90
2018-08-30T05:33:08.435Z,99.90
2018-08-30T05:35:39.503Z,99.90
2018-08-30T05:38:10.575Z,99.90
2018-08-30T05:40:41.619Z,99.90
2018-08-30T05:43:12.607Z,99.90
2018-08-30T05:45:43.779Z,99.90
2018-08-30T05:48:14.791Z,99.90
2018-08-30T05:50:46.006Z,99.90
2018-08-30T05:53:17.211Z,99.90
2018-08-30T05:55:48.527Z,99.90
2018-08-30T05:58:19.658Z,99.90
2018-08-30T06:00:50.778Z,99.90
2018-08-30T06:03:21.907Z,99.90
2018-08-30T06:05:53.122Z,99.90
2018-08-30T06:08:24.354Z,99.90
2018-08-30T06:10:55.522Z,99.90
2018-08-30T06:13:26.763Z,99.90
2018-08-30T06:15:57.899Z,99.90
2018-08-30T06:18:29.010Z,99.90
2018-08-30T06:21:00.217Z,99.90
2018-08-30T06:23:31.325Z,99.90
2018-08-30T06:26:02.455Z,99.90
2018-08-30T06:28:33.962Z,99.90
2018-08-30T06:31:05.199Z,99.90
2018-08-30T06:33:36.258Z,99.90
2018-08-30T06:36:07.448Z,99.90
2018-08-30T06:38:38.513Z,99.90
2018-08-30T06:41:09.877Z,99.90
2018-08-30T06:43:41.058Z,99.90
2018-08-30T06:46:12.299Z,99.90
2018-08-30T06:48:43.401Z,99.90
2018-08-30T06:51:14.597Z,99.90
2018-08-30T06:53:45.718Z,99.90
2018-08-30T06:56:16.975Z,99.90
2018-08-30T06:58:48.229Z,99.90
2018-08-30T07:01:19.386Z,99.90
2018-08-30T07:03:50.454Z,99.90
2018-08-30T07:06:21.507Z,99.90
2018-08-30T07:08:52.579Z,99.90
2018-08-30T07:11:23.831Z,99.90
2018-08-30T07:13:54.923Z,99.90
2018-08-30T07:16:26.245Z,99.90
2018-08-30T07:18:57.339Z,99.90
2018-08-30T07:21:28.399Z,99.90
2018-08-30T07:23:59.460Z,99.90
2018-08-30T07:26:30.620Z,99.90
2018-08-30T07:29:01.750Z,99.90
2018-08-30T07:31:32.906Z,99.90
2018-08-30T07:34:04.205Z,99.90
2018-08-30T07:36:35.355Z,99.90
2018-08-30T07:39:09.080Z,99.90
2018-08-30T07:41:40.198Z,99.90
2018-08-30T07:44:12.485Z,99.90
2018-08-30T07:46:43.679Z,99.90
2018-08-30T07:49:14.724Z,99.90
2018-08-30T07:51:45.978Z,99.90
2018-08-30T07:54:17.284Z,99.90
2018-08-30T07:56:48.524Z,99.90
2018-08-30T07:59:19.700Z,99.90
2018-08-30T08:01:50.901Z,99.90
2018-08-30T08:04:22.020Z,99.90
2018-08-30T08:06:53.184Z,99.90
2018-08-30T08:09:24.515Z,99.90
2018-08-30T08:11:55.749Z,99.90
2018-08-30T08:14:26.911Z,99.90
2018-08-30T08:16:58.242Z,99.90
2018-08-30T08:19:29.375Z,99.90
2018-08-30T08:22:00.490Z,99.90
2018-08-30T08:24:31.617Z,99.90
2018-08-30T08:27:02.854Z,99.90
2018-08-30T08:29:33.994Z,99.90
2018-08-30T08:32:05.222Z,99.90
2018-08-30T08:34:36.349Z,99.90
2018-08-30T08:37:07.496Z,99.90
2018-08-30T08:39:38.687Z,99.90
2018-08-30T08:42:09.886Z,99.90
2018-08-30T08:44:41.361Z,99.90
2018-08-30T08:47:12.503Z,99.90
2018-08-30T08:49:43.659Z,99.90
2018-08-30T08:52:14.815Z,99.90
2018-08-30T08:54:45.910Z,99.90
2018-08-30T08:57:17.162Z,99.90
2018-08-30T08:59:48.395Z,99.90
2018-08-30T09:02:19.566Z,99.90
2018-08-30T09:04:51.015Z,99.90
2018-08-30T09:07:22.269Z,99.90
2018-08-30T09:09:53.608Z,99.90
2018-08-30T09:12:24.738Z,99.90
2018-08-30T09:14:55.879Z,99.90
2018-08-30T09:17:27.016Z,99.90
2018-08-30T09:19:58.336Z,99.90
2018-08-30T09:22:29.643Z,99.90
2018-08-30T09:25:00.756Z,99.90
2018-08-30T09:27:32.043Z,99.90
2018-08-30T09:30:03.331Z,99.90
2018-08-30T09:32:34.634Z,99.90
2018-08-30T09:35:05.878Z,99.90
2018-08-30T09:37:37.017Z,99.90
2018-08-30T09:40:08.314Z,99.90
2018-08-30T09:42:39.402Z,99.90
2018-08-30T09:45:10.477Z,99.90
2018-08-30T09:47:41.543Z,99.90
2018-08-30T09:50:12.642Z,99.90
2018-08-30T09:52:43.927Z,99.90
2018-08-30T09:55:15.162Z,99.90
2018-08-30T09:57:46.474Z,99.90
2018-08-30T10:00:22.184Z,99.90
2018-08-30T10:02:53.267Z,99.90
2018-08-30T10:05:24.354Z,99.90
2018-08-30T10:07:55.549Z,99.90
2018-08-30T10:10:26.703Z,99.90
2018-08-30T10:12:58.083Z,99.90
2018-08-30T10:15:29.284Z,99.90
2018-08-30T10:18:00.408Z,99.90
2018-08-30T10:20:31.646Z,99.90
2018-08-30T10:23:02.935Z,99.90
2018-08-30T10:25:34.163Z,99.90
2018-08-30T10:28:05.381Z,99.90
2018-08-30T10:30:36.482Z,99.90
2018-08-30T10:33:07.723Z,99.90
2018-08-30T10:35:38.967Z,99.90
2018-08-30T10:38:10.050Z,99.90
2018-08-30T10:40:41.182Z,99.90
2018-08-30T10:43:12.403Z,99.90
2018-08-30T10:45:43.730Z,99.90
2018-08-30T10:48:14.955Z,99.90
2018-08-30T10:50:46.429Z,99.90
2018-08-30T10:53:17.750Z,99.90
2018-08-30T10:55:49.009Z,99.90
2018-08-30T10:58:20.403Z,99.90
2018-08-30T11:00:52.022Z,99.90
2018-08-30T11:03:23.568Z,99.90
2018-08-30T11:05:54.924Z,99.90
2018-08-30T11:08:26.231Z,99.90
2018-08-30T11:10:57.422Z,99.90
2018-08-30T11:13:28.620Z,99.90
2018-08-30T11:16:00.139Z,99.90
2018-08-30T11:18:31.372Z,99.90
2018-08-30T11:21:02.495Z,99.90
2018-08-30T11:23:33.619Z,99.90
2018-08-30T11:26:04.817Z,99.90
2018-08-30T11:28:35.984Z,99.90
2018-08-30T11:31:07.090Z,99.90
2018-08-30T11:33:38.322Z,99.90
2018-08-30T11:36:09.504Z,99.90
2018-08-30T11:38:40.746Z,99.90
2018-08-30T11:41:11.833Z,99.90
2018-08-30T11:43:43.204Z,99.90
2018-08-30T11:46:14.328Z,99.90
2018-08-30T11:48:45.448Z,99.90
2018-08-30T11:51:17.491Z,99.90
2018-08-30T11:53:48.536Z,99.90
2018-08-30T11:56:19.616Z,99.90
2018-08-30T11:58:50.890Z,99.90
2018-08-30T12:01:22.088Z,99.90
2018-08-30T12:03:53.476Z,99.90
2018-08-30T12:06:24.789Z,99.90
2018-08-30T12:08:56.075Z,99.90
2018-08-30T12:11:27.166Z,99.90
2018-08-30T12:13:58.343Z,99.90
2018-08-30T12:16:29.492Z,99.90
2018-08-30T12:19:00.630Z,99.90
2018-08-30T12:21:31.751Z,99.90
2018-08-30T12:24:03.793Z,99.90
2018-08-30T12:26:35.091Z,99.90
2018-08-30T12:29:06.470Z,99.90
2018-08-30T12:34:03.445Z,99.90
2018-08-30T12:36:34.649Z,99.90
2018-08-30T12:39:06.579Z,99.90
2018-08-30T12:41:37.744Z,99.90
2018-08-30T12:44:09.129Z,99.90
2018-08-30T12:46:40.429Z,99.90
2018-08-30T12:49:11.544Z,99.90
2018-08-30T12:51:42.968Z,99.90
2018-08-30T12:54:28.271Z,99.90
2018-08-30T12:56:59.434Z,99.90
2018-08-30T12:59:35.384Z,99.90
2018-08-30T13:02:06.646Z,99.90
2018-08-30T13:04:37.857Z,99.90
2018-08-30T13:07:08.970Z,99.90
2018-08-30T13:09:40.049Z,99.90
2018-08-30T13:12:11.534Z,99.90
2018-08-30T13:14:42.647Z,99.90
2018-08-30T13:17:13.651Z,99.90
2018-08-30T13:19:45.153Z,99.90
2018-08-30T13:22:16.513Z,99.90
2018-08-30T13:24:47.646Z,99.90
2018-08-30T13:27:18.788Z,99.90
2018-08-30T13:29:50.103Z,99.90
2018-08-30T13:32:21.198Z,99.90
2018-08-30T13:34:52.457Z,99.90
2018-08-30T13:37:23.650Z,99.90
2018-08-30T13:39:55.130Z,99.90
2018-08-30T13:42:26.271Z,99.90
2018-08-30T13:44:57.379Z,99.90
2018-08-30T13:47:28.663Z,99.90
2018-08-30T13:50:00.149Z,99.90
2018-08-30T13:52:31.748Z,99.90
2018-08-30T13:55:02.966Z,99.90
2018-08-30T13:57:34.160Z,99.90
2018-08-30T14:00:05.545Z,99.90
2018-08-30T14:02:36.446Z,99.90
2018-08-30T14:05:07.553Z,99.90
2018-08-30T14:07:38.703Z,99.90
2018-08-30T14:10:09.962Z,99.90
2018-08-30T14:12:41.188Z,99.90
2018-08-30T14:15:12.395Z,99.90
2018-08-30T14:17:43.130Z,99.90
2018-08-30T14:22:40.026Z,99.90
2018-08-30T14:25:11.085Z,99.90
2018-08-30T14:27:42.150Z,99.90
2018-08-30T14:30:13.304Z,99.90
2018-08-30T14:32:44.549Z,99.90
2018-08-30T14:35:15.639Z,99.90
2018-08-30T14:37:46.658Z,99.90
2018-08-30T14:40:17.696Z,99.90
2018-08-30T14:42:48.720Z,99.90
2018-08-30T14:45:19.723Z,99.90
2018-08-30T14:47:50.919Z,99.90
2018-08-30T14:50:21.970Z,99.90
2018-08-30T14:52:53.054Z,99.90
2018-08-30T14:55:24.030Z,99.90
2018-08-30T14:57:54.971Z,99.90
2018-08-30T15:00:26.009Z,99.90
2018-08-30T15:02:57.029Z,99.90
2018-08-30T15:05:28.377Z,99.90
2018-08-30T15:07:59.295Z,99.90
2018-08-30T15:10:30.397Z,99.90
2018-08-30T15:15:30.386Z,99.90
2018-08-30T15:18:01.350Z,99.90
2018-08-30T15:20:32.570Z,99.90
2018-08-30T15:23:03.638Z,99.90
2018-08-30T15:25:34.869Z,99.90
2018-08-30T15:28:05.914Z,99.90
2018-08-30T15:30:37.093Z,99.90
2018-08-30T15:33:08.183Z,99.90
2018-08-30T15:35:39.175Z,99.90
2018-08-30T15:38:10.191Z,99.90
2018-08-30T15:40:41.222Z,99.90
2018-08-30T15:43:12.326Z,99.90
2018-08-30T15:46:13.979Z,99.90
2018-08-30T15:48:45.191Z,99.90
2018-08-30T15:51:16.494Z,99.90
2018-08-30T15:53:47.681Z,99.90
2018-08-30T15:56:18.754Z,99.90
2018-08-30T15:58:50.161Z,99.90
2018-08-30T16:01:21.439Z,99.90
2018-08-30T16:03:52.642Z,99.90
2018-08-30T16:06:23.759Z,99.90
2018-08-30T16:08:54.854Z,99.90
2018-08-30T16:11:26.373Z,99.90
2018-08-30T16:13:57.380Z,99.90
2018-08-30T16:16:28.543Z,99.90
2018-08-30T16:18:59.719Z,99.90
2018-08-30T16:21:30.931Z,99.90
2018-08-30T16:24:01.951Z,99.90
2018-08-30T16:26:33.031Z,99.90
2018-08-30T16:29:04.637Z,99.90
2018-08-30T16:31:36.996Z,99.90
2018-08-30T16:34:08.332Z,99.90
2018-08-30T16:36:39.720Z,99.90
2018-08-30T16:45:07.068Z,99.90
2018-08-30T16:47:38.317Z,99.90
2018-08-30T16:50:09.471Z,99.90
2018-08-30T16:52:40.539Z,99.90
2018-08-30T16:55:11.599Z,99.90
2018-08-30T16:57:42.750Z,99.90
2018-08-30T17:00:13.816Z,99.90
2018-08-30T17:02:44.931Z,99.90
2018-08-30T17:05:16.187Z,99.90
2018-08-30T17:07:47.351Z,99.90
2018-08-30T17:10:18.567Z,99.90
2018-08-30T17:12:49.872Z,99.90
2018-08-30T17:15:21.074Z,99.90
2018-08-30T17:17:52.323Z,99.90
2018-08-30T17:20:29.045Z,99.90
2018-08-30T17:25:25.901Z,99.90
2018-08-30T17:27:56.947Z,99.90
2018-08-30T17:30:27.984Z,99.90
2018-08-30T17:35:24.907Z,99.90
2018-08-30T17:37:55.995Z,99.90
2018-08-30T17:40:26.950Z,99.90
2018-08-30T17:42:58.148Z,99.70
2018-08-30T17:45:29.305Z,99.90
2018-08-30T17:48:00.569Z,99.90
2018-08-30T17:50:31.845Z,99.90
2018-08-30T17:55:28.748Z,96.50
2018-08-30T17:58:00.188Z,96.50
2018-08-30T18:00:31.189Z,94.40
2018-08-30T18:05:28.680Z,99.90
2018-08-30T18:07:59.818Z,92.30
2018-08-30T18:10:30.967Z,93.30
2018-08-30T18:15:27.755Z,92.90
2018-08-30T18:17:58.954Z,94.70
2018-08-30T18:20:30.018Z,92.60
2018-08-30T18:25:26.868Z,91.30
2018-08-30T18:27:57.932Z,92.20
2018-08-30T18:30:29.015Z,92.60
2018-08-30T18:35:25.883Z,88.60
2018-08-30T18:37:56.918Z,88.80
2018-08-30T18:40:27.855Z,91.40
2018-08-30T18:45:24.650Z,76.30
2018-08-30T18:47:55.691Z,82.00
2018-08-30T18:50:26.915Z,88.30
2018-08-30T18:53:20.609Z,81.80
2018-08-30T18:55:51.582Z,83.60
2018-08-30T18:58:22.749Z,85.30
2018-08-30T19:00:53.771Z,76.90
2018-08-30T19:03:24.786Z,79.10
2018-08-30T19:05:55.804Z,80.40
2018-08-30T19:08:26.923Z,74.50
2018-08-30T19:10:58.167Z,78.20
2018-08-30T19:13:29.135Z,85.30
2018-08-30T19:16:04.667Z,86.80
2018-08-30T19:18:55.316Z,79.80
2018-08-30T19:21:26.255Z,88.20
2018-08-30T19:23:57.242Z,84.20
2018-08-30T19:26:28.202Z,77.60
2018-08-30T19:28:59.183Z,80.50
2018-08-30T19:31:30.188Z,86.40
2018-08-30T19:34:01.260Z,81.30
2018-08-30T19:36:33.615Z,82.20
2018-08-30T19:39:05.471Z,80.90
2018-08-30T19:41:36.421Z,85.00
2018-08-30T19:44:07.670Z,86.10
2018-08-30T19:46:38.812Z,80.30
2018-08-30T19:49:09.794Z,85.70
2018-08-30T19:51:40.954Z,84.00
2018-08-30T19:54:12.182Z,89.30
2018-08-30T19:56:43.479Z,82.80
2018-08-30T19:59:14.602Z,81.20
2018-08-30T20:01:45.718Z,84.00
2018-08-30T20:04:16.856Z,81.50
2018-08-30T20:06:47.991Z,80.60
2018-08-30T20:09:19.359Z,83.00
2018-08-30T20:11:50.384Z,82.40
2018-08-30T20:14:21.599Z,81.30
2018-08-30T20:16:52.779Z,82.60
2018-08-30T20:19:23.839Z,81.30
2018-08-30T20:21:54.918Z,81.70
2018-08-30T20:24:25.878Z,81.60
2018-08-30T20:26:56.992Z,82.90
2018-08-30T20:29:28.107Z,82.30
2018-08-30T20:31:59.373Z,83.80
2018-08-30T20:34:30.415Z,82.30
2018-08-30T20:37:01.564Z,86.30
2018-08-30T20:39:32.711Z,83.10
2018-08-30T20:42:03.797Z,81.00
2018-08-30T20:44:34.742Z,78.80
2018-08-30T20:47:05.812Z,76.80
2018-08-30T20:49:36.871Z,76.90
2018-08-30T20:52:08.711Z,82.10
2018-08-30T20:54:39.756Z,74.80
2018-08-30T20:57:10.894Z,74.20
2018-08-30T20:59:42.143Z,76.10
2018-08-30T21:02:13.512Z,77.50
2018-08-30T21:04:44.619Z,75.80
2018-08-30T21:07:15.807Z,74.90
2018-08-30T21:09:47.025Z,78.60
2018-08-30T21:12:18.390Z,74.10
2018-08-30T21:17:15.079Z,69.50
2018-08-30T21:19:46.155Z,71.50
2018-08-30T21:22:17.202Z,72.70
2018-08-30T21:27:14.023Z,73.00
2018-08-30T21:29:45.197Z,79.00
2018-08-30T21:32:16.401Z,77.50
2018-08-30T21:37:13.545Z,73.30
2018-08-30T21:39:44.612Z,72.60
2018-08-30T21:42:15.663Z,75.60
2018-08-30T21:49:38.360Z,78.00
2018-08-30T21:52:09.714Z,75.70
2018-08-30T21:59:44.415Z,80.30
2018-08-30T22:02:15.612Z,75.30
2018-08-30T22:07:12.416Z,77.10
2018-08-30T22:09:43.638Z,82.20
2018-08-30T22:12:14.878Z,83.30
2018-08-30T22:17:11.772Z,81.60
2018-08-30T22:19:42.821Z,80.40
2018-08-30T22:22:14.120Z,83.60
2018-08-30T22:27:11.173Z,77.70
2018-08-30T22:29:42.348Z,83.60
2018-08-30T22:32:13.641Z,79.30
2018-08-30T22:37:10.423Z,84.30
2018-08-30T22:39:41.590Z,81.30
2018-08-30T22:42:12.564Z,84.10
2018-08-30T22:47:09.248Z,84.20
2018-08-30T22:49:40.301Z,85.40
2018-08-30T22:52:11.335Z,90.20
2018-08-30T22:54:57.222Z,91.80
2018-08-30T22:57:28.218Z,91.90
2018-08-30T22:59:59.263Z,91.80
2018-08-30T23:02:30.395Z,92.70
2018-08-30T23:05:01.495Z,93.10
2018-08-30T23:07:32.498Z,95.60
2018-08-30T23:10:03.667Z,99.90
2018-08-30T23:12:34.752Z,99.90
2018-08-30T23:15:05.872Z,99.90
2018-08-30T23:17:36.940Z,99.90
2018-08-30T23:20:07.995Z,99.90
2018-08-30T23:22:57.615Z,99.90
2018-08-30T23:25:28.576Z,99.90
2018-08-30T23:27:59.532Z,99.90
2018-08-30T23:30:30.508Z,99.90
2018-08-30T23:33:01.484Z,99.90
2018-08-30T23:35:32.403Z,99.90
2018-08-30T23:38:03.347Z,99.90
2018-08-30T23:40:34.307Z,99.90
2018-08-30T23:43:05.355Z,99.90
2018-08-30T23:45:36.299Z,99.90
2018-08-30T23:48:07.399Z,99.90
2018-08-30T23:50:38.363Z,99.90
2018-08-30T23:53:09.339Z,99.90
2018-08-30T23:55:40.275Z,99.90
2018-08-30T23:58:21.247Z,99.90
